The 2nd Annual Rothrock 30K Trail Challenge was held on a warm, very humid morning. The field was over 50% bigger than last year's. Locals Jacob Loverich and Meira Minard beat some big guns from out of town, including runners brought in by one of the race's sponsors, Sportiva.

Marty Mazur posted pictures from the start on Facebook. You can see them, as well as other pictures by joining the Nittany Valley Running Club group on Facebook.

The Rothrock Challenge is getting to be quite a big deal and fills up early. Sign up early for next year's Challenge. Visit the Rothrock Challenge web site.

Here's Tara Murray's report for the Centre Daily Times:

Race results by PARunners.com

Place  Name                City                Age   Sex  Age Group     Time      Pace    Time Back
----- ---- ---- --- --- --------- ---- ---- ---------
1 JACOB LOVERICH STATE COLLEGE PA 33 M 1 30-39 2:46:54.4 8:58/M
2 JASON BRYANT ELKIN NC 37 M 2 30-39 2:51:33.7 9:13/M 0:04:39.3
3 MATTHEW BYRNE SCRANTON PA 35 M 3 30-39 2:52:21.4 9:16/M 0:05:27.0
4 MICHAEL SELIG LAKEWOOD CO 32 M 4 30-39 2:54:49.7 9:24/M 0:07:55.3
5 JAMES RAYBURN YORK PA 48 M 1 40-49 3:00:32.4 9:42/M 0:13:38.0
6 FRANK LEITER HARRISBURG PA 37 M 5 30-39 3:00:51.8 9:43/M 0:13:57.4
7 JESSE JOHNSON STEWARTSTOWN PA 35 M 6 30-39 3:03:39.6 9:52/M 0:16:45.2
8 CHIP KOGELMANN STATE COLLEGE PA 39 M 7 30-39 3:07:09.9 10:04/M 0:20:15.5
9 TADD MORRIS CAMP HILL PA 42 M 2 40-49 3:12:14.4 10:20/M 0:25:20.0
10 ANDREW HOLLAND NEW YORK NY 31 M 8 30-39 3:12:17.8 10:20/M 0:25:23.4
11 ERIC MARSHALL BOALSBURG PA 26 M 1 20-29 3:23:35.5 10:57/M 0:36:41.1
12 KIRBY MARTIN REEDSVILLE PA 34 M 9 30-39 3:25:28.0 11:03/M 0:38:33.6
13 TODD YARNELL ALTOONA PA 36 M 10 30-39 3:30:10.4 11:18/M 0:43:16.0
14 KELLY KENNEDY LEMONT PA 37 M 11 30-39 3:30:17.2 11:18/M 0:43:22.8
15 DAVID HESTOR DUNCANNON PA 17 M 1 0-19 3:33:48.9 11:30/M 0:46:54.5
16 MEIRA MINARD STATE COLLEGE PA 36 F 1 30-39 3:34:17.3 11:31/M 0:47:22.9
17 AL FOX LEWISBURG PA 48 M 3 40-49 3:34:56.5 11:33/M 0:48:02.1
18 ANDREW SIEFERT CORTLAND NY 25 M 2 20-29 3:43:23.4 12:01/M 0:56:29.0
19 KIMBERLY WALTER STATE COLLEGE PA 29 F 1 20-29 3:44:44.7 12:05/M 0:57:50.3
20 LARRY SCHLALINE DALLASTOWN PA 48 M 4 40-49 3:45:13.7 12:07/M 0:58:19.3
21 CRAIG FLEMING STATE COLLEGE PA 37 M 12 30-39 3:46:32.9 12:11/M 0:59:38.5
22 ALISON BRYANT ELKIN NC 31 F 2 30-39 3:46:51.0 12:12/M 0:59:56.6
23 JAMES CONWAY MILL HALL PA 39 M 13 30-39 3:47:35.6 12:14/M 1:00:41.2
24 KORY HUBBARD INDIANA PA 22 M 3 20-29 3:50:25.8 12:23/M 1:03:31.4
25 SETH KUTIKOFF STATE COLLEGE PA 21 M 4 20-29 3:51:49.5 12:28/M 1:04:55.1
26 CAITLIN STRAHOTA SLIPPERY ROCK PA 24 F 2 20-29 3:53:39.1 12:34/M 1:06:44.7
27 JEFF SMUCKER WOODWARD PA 44 M 5 40-49 3:53:57.5 12:35/M 1:07:03.1
28 GARY TWOEY STATE COLLEGE PA 40 M 6 40-49 3:55:11.1 12:39/M 1:08:16.7
29 JAMES CRAMER MYERSTOWN PA 47 M 7 40-49 3:55:11.4 12:39/M 1:08:17.0
30 MATT DIXON PORT MATILDA PA 40 M 8 40-49 3:58:11.9 12:48/M 1:11:17.5
31 JENNIFER FLEMING STATE COLLEGE PA 35 F 3 30-39 3:59:06.8 12:51/M 1:12:12.4
32 STEVE NELSON STATE COLLEGE PA 37 M 14 30-39 4:03:31.6 13:06/M 1:16:37.2
33 MICHAEL RIEDER NEW COLUMBIA PA 36 M 15 30-39 4:06:10.4 13:14/M 1:19:16.0
34 JUDD MICHAEL LEMONT PA 46 M 9 40-49 4:07:44.7 13:19/M 1:20:50.3
35 PETE GROTH DOUGLASSVILLE PA 41 M 10 40-49 4:07:55.2 13:20/M 1:21:00.8
36 MICHAEL HUTSON BLACKWOOD NJ 39 M 16 30-39 4:11:04.2 13:30/M 1:24:09.8
37 ERIK JOHNSON ARDMORE PA 34 M 17 30-39 4:12:36.8 13:35/M 1:25:42.4
38 TARA MURRAY BELLEFONTE PA 33 F 4 30-39 4:13:30.9 13:38/M 1:26:36.5
39 TOM UNDERWOOD CATAWISSA PA 40 M 11 40-49 4:14:12.1 13:40/M 1:27:17.7
40 GREG BLATT STATE COLLEGE PA 28 M 5 20-29 4:14:49.2 13:42/M 1:27:54.8
41 DAVE MITCHELL BLOOMSBURG PA 55 M 1 50-59 4:18:16.7 13:53/M 1:31:22.3
42 WILLIAM SCHLORFF LOCK HAVEN PA 46 M 12 40-49 4:18:20.7 13:53/M 1:31:26.3
43 MATT ZERBY LOCK HAVEN PA 22 M 6 20-29 4:18:47.9 13:55/M 1:31:53.5
44 JOSEPH ADAMS PORT MATILDA PA 40 M 13 40-49 4:19:14.7 13:56/M 1:32:20.3
45 MIKE HABALAR WILLIAMSPORT PA 36 M 18 30-39 4:19:36.5 13:57/M 1:32:42.1
46 AMY MCCULLOUGH DOVER PA 28 F 3 20-29 4:19:37.8 13:57/M 1:32:43.4
47 GARRET GRAFF JERSEY SHORE PA 37 M 19 30-39 4:19:43.2 13:58/M 1:32:48.8
48 JEN STEC-GAGLIARDI BENTON PA 34 F 5 30-39 4:19:54.6 13:58/M 1:33:00.2
49 BRIAN JOLY PITTSBURGH PA 51 M 2 50-59 4:21:39.9 14:04/M 1:34:45.5
50 EDWARD WILSON-EWING STATE COLLEGE PA 26 M 7 20-29 4:22:33.9 14:07/M 1:35:39.5
51 JAMES WALKER BEECH CREEK PA 35 M 20 30-39 4:23:15.2 14:09/M 1:36:20.8
52 STACEY HIBBLER LOCK HAVEN PA 46 M 14 40-49 4:23:16.2 14:09/M 1:36:21.8
53 VINCE VILLELLA PUNXSUTAWNEY PA 19 M 2 0-19 4:24:10.2 14:12/M 1:37:15.8
54 JAMES REA LOYSVILLE PA 39 M 21 30-39 4:24:14.6 14:12/M 1:37:20.2
55 DYLAN HENRY BEACH LAKE PA 22 M 8 20-29 4:24:15.0 14:12/M 1:37:20.6
56 GARRY RARER STOWE PA 37 M 22 30-39 4:24:29.6 14:13/M 1:37:35.2
57 GARRETT KERSTETTER MILTON PA 27 M 9 20-29 4:24:29.6 14:13/M 1:37:35.2
58 MARK READ STATE COLLEGE PA 39 M 23 30-39 4:25:00.2 14:15/M 1:38:05.8
59 BOB RENNINGER WILLIAMSPORT PA 56 M 3 50-59 4:25:04.3 14:15/M 1:38:09.9
60 JOHN UEHLING MIFFLINBURG PA 49 M 15 40-49 4:26:39.4 14:20/M 1:39:45.0
61 RON BARNES HOWARD PA 44 M 16 40-49 4:26:46.1 14:21/M 1:39:51.7
62 JOSEPH YOUNG LEWISTOWN PA 52 M 4 50-59 4:26:53.1 14:21/M 1:39:58.7
63 BRIAN ROBERTSON WILMINGTON DE 41 M 17 40-49 4:27:13.5 14:22/M 1:40:19.1
64 MARVIN HALL STATE COLLEGE PA 55 M 5 50-59 4:27:52.1 14:24/M 1:40:57.7
65 ELLICE SMITH HUNTINGDON PA 26 F 4 20-29 4:27:52.7 14:24/M 1:40:58.3
66 TAMMY MCGAUGHEY CHICORA PA 48 F 1 40-49 4:28:46.0 14:27/M 1:41:51.6
67 TOM RODGERS PORT MATILDA PA 49 M 18 40-49 4:31:11.9 14:35/M 1:44:17.5
68 CLIFF WHITE STATE COLLEGE PA 26 M 10 20-29 4:31:14.5 14:35/M 1:44:20.1
69 TODD VALESKY PHILIPSBURG PA 39 M 24 30-39 4:32:56.2 14:40/M 1:46:01.8
70 DANIEL MCCASLIN JULIAN PA 37 M 25 30-39 4:33:00.9 14:41/M 1:46:06.5
71 DANIEL MOWERS PLEASANT HALL PA 32 M 26 30-39 4:34:47.0 14:46/M 1:47:52.6
72 CHRIS YEAGER LINDEN PA 36 M 27 30-39 4:34:52.3 14:47/M 1:47:57.9
73 DAVID DEGROOTE STATE COLLEGE PA 52 M 6 50-59 4:35:04.4 14:47/M 1:48:10.0
74 MOLLY RITTER ARENDTSVILLE PA 23 F 5 20-29 4:35:52.0 14:50/M 1:48:57.6
75 CLAIRE BERRYMAN MORGANTOWN WV 23 F 6 20-29 4:35:52.1 14:50/M 1:48:57.7
76 MATT LINDSEY ALTOONA PA 34 M 28 30-39 4:36:01.4 14:50/M 1:49:07.0
77 JOANNE VAN HORN DOUGLASSVILLE PA 45 F 2 40-49 4:37:32.7 14:55/M 1:50:38.3
78 MARSHA LATIMER POTTSTOWN PA 48 F 3 40-49 4:37:32.9 14:55/M 1:50:38.5
79 JASON FRITZ MIFFLINBURG PA 35 M 29 30-39 4:37:36.1 14:55/M 1:50:41.7
80 MATTHEW ROULIN RINGTOWN PA 28 M 11 20-29 4:37:39.7 14:56/M 1:50:45.3
81 JORGE FERNANDEZ DOWNINGTOWN PA 26 M 12 20-29 4:38:26.3 14:58/M 1:51:31.9
82 SCOTT KLETTKE MORGAN HILL CA 36 M 30 30-39 4:38:39.7 14:59/M 1:51:45.3
83 STEVE GEYER BELLEFONTE PA 43 M 19 40-49 4:39:03.1 15:00/M 1:52:08.7
84 DANIEL GOVERN LENHARTSVILLE PA 41 M 20 40-49 4:39:07.3 15:00/M 1:52:12.9
85 CHRIS DEYO STATE COLLEGE PA 34 M 31 30-39 4:41:02.9 15:07/M 1:54:08.5
86 BRIAN BRUSHWOOD STATE COLLEGE PA 34 M 32 30-39 4:41:21.8 15:08/M 1:54:27.4
87 MIKE SNADER LITITZ PA 28 M 13 20-29 4:42:55.2 15:13/M 1:56:00.8
88 KRISTINA HARRIS STATE COLLEGE PA 24 F 7 20-29 4:43:12.6 15:14/M 1:56:18.2
89 JEFF FOSTER CHAMBERSBURG PA 35 M 33 30-39 4:43:17.1 15:14/M 1:56:22.7
90 TOM BARLOW WILMINGTON DE 56 M 7 50-59 4:46:15.7 15:23/M 1:59:21.3
91 SAMUEL SNYDER LOCK HAVEN PA 30 M 34 30-39 4:46:48.7 15:25/M 1:59:54.3
92 STEVE TEMPLIN MILTON PA 37 M 35 30-39 4:47:09.8 15:26/M 2:00:15.4
93 ANGEL BURD HUNTINGDON PA 25 F 8 20-29 4:47:26.2 15:27/M 2:00:31.8
94 THADDEUS WILL WARRIORS MARK PA 37 M 36 30-39 4:48:25.7 15:30/M 2:01:31.3
95 JASON MARUCCIO PITTSBURGH PA 33 M 37 30-39 4:49:04.5 15:32/M 2:02:10.1
96 SCOTT WOODS STATE COLLEGE PA 35 M 38 30-39 4:49:29.2 15:34/M 2:02:34.8
97 JARED SHOLLEY MIFFLINBURG PA 31 M 39 30-39 4:49:47.1 15:35/M 2:02:52.7
98 MICHAEL MCCLOUD MIFFLINBURG PA 52 M 8 50-59 4:49:47.8 15:35/M 2:02:53.4
99 LORI JOHNSON RED HILL PA 46 F 4 40-49 4:50:25.1 15:37/M 2:03:30.7
100 ROBERT GUSZTAW WIND GAP PA 52 M 9 50-59 4:52:04.4 15:42/M 2:05:10.0
101 TREVOR BRYDEN STATE COLLEGE PA 31 M 40 30-39 4:53:13.4 15:46/M 2:06:19.0
102 JANINE HOCKMAN WIND GAP PA 44 F 5 40-49 4:53:25.3 15:47/M 2:06:30.9
103 SUE CHALLIS STATE COLLEGE PA 44 F 6 40-49 4:53:30.8 15:47/M 2:06:36.4
104 BECKY GREEN-DIXON PORT MATILDA PA 41 F 7 40-49 4:53:37.1 15:47/M 2:06:42.7
105 KARL ROY EDGEWATER MD 39 M 41 30-39 4:53:58.1 15:48/M 2:07:03.7
106 GYASI DAVIS STATE COLLEGE PA 9 M 3 0-19 4:54:30.4 15:50/M 2:07:36.0
107 MICHAEL FIORE ALTOONA PA 28 M 14 20-29 4:54:31.1 15:50/M 2:07:36.7
108 BRIAN OTTINGER PITTSBURGH PA 53 M 10 50-59 4:55:25.4 15:53/M 2:08:31.0
109 SHANE LOERCHER MANHEIM PA 25 M 15 20-29 4:56:28.8 15:56/M 2:09:34.4
110 JUSTIN BELLINI CHAGRIN FALLS OH 36 M 42 30-39 4:56:51.7 15:58/M 2:09:57.3
111 MATT HARTMAN JERSEY SHORE PA 35 M 43 30-39 4:56:52.2 15:58/M 2:09:57.8
112 SHAUN HUPPERTZ NEW CASTLE PA 43 M 21 40-49 4:57:27.3 16:00/M 2:10:32.9
113 RANDY KRUGER LYNDORA PA 39 M 44 30-39 4:58:29.1 16:03/M 2:11:34.7
114 KATIERA CAREY MONTOURSVILLE PA 23 F 9 20-29 4:58:35.8 16:03/M 2:11:41.4
115 DREW WELCH MILL HALL PA 31 M 45 30-39 4:58:40.4 16:03/M 2:11:46.0
116 JOYCE BERRYMAN MORGANTOWN WV 55 F 1 50-59 4:58:43.6 16:04/M 2:11:49.2
117 LAUREN GREENBERG BEL AIR MD 22 F 10 20-29 4:59:46.6 16:07/M 2:12:52.2
118 TODD EGRY WALNUTPORT PA 45 M 22 40-49 4:59:55.9 16:07/M 2:13:01.5
119 JAMES MYERS BOALSBURG PA 55 M 11 50-59 5:00:24.7 16:09/M 2:13:30.3
120 BRUCE JODOIN EASTON PA 54 M 12 50-59 5:00:32.2 16:09/M 2:13:37.8
121 TIMOTHY GATES HARRISBURG PA 34 M 46 30-39 5:01:05.3 16:11/M 2:14:10.9
122 JIM SIMON BOALSBURG PA 37 M 47 30-39 5:03:05.9 16:18/M 2:16:11.5
123 YVONNE MCCASLIN JULIAN PA 36 F 6 30-39 5:03:21.0 16:19/M 2:16:26.6
124 KELLY HIBBLER LOCK HAVEN PA 42 F 8 40-49 5:03:25.0 16:19/M 2:16:30.6
125 MICHELE PROBST RENOVO PA 40 F 9 40-49 5:04:07.1 16:21/M 2:17:12.7
126 PATRICK FOURNEY LOCK HAVEN PA 39 M 48 30-39 5:04:07.5 16:21/M 2:17:13.1
127 JERRY BLASKO DANVILLE PA 38 M 49 30-39 5:04:22.4 16:22/M 2:17:28.0
128 GABRIEL TAMBUNGA PHILADELPHIA PA 37 M 50 30-39 5:05:56.4 16:27/M 2:19:02.0
129 BARTON TOWELL ERIE PA 27 M 16 20-29 5:06:01.4 16:27/M 2:19:07.0
130 RYAN MAXWELL LEWISBURG PA 47 M 23 40-49 5:06:45.3 16:30/M 2:19:50.9
131 SCOTT GROVE MILTON PA 38 M 51 30-39 5:06:46.8 16:30/M 2:19:52.4
132 BILL MCCONNELL WATERVILLE PA 34 M 52 30-39 5:07:09.1 16:31/M 2:20:14.7
133 SCOTT TROUT NEWPORT PA 23 M 17 20-29 5:07:40.1 16:32/M 2:20:45.7
134 KRISTIE KAUFMAN STATE COLLEGE PA 41 F 10 40-49 5:08:35.1 16:35/M 2:21:40.7
135 BRETT BEAVER NEWPORT PA 33 M 53 30-39 5:10:00.2 16:40/M 2:23:05.8
136 JESSE GREENAWALT LEWISBURG PA 43 M 24 40-49 5:11:24.8 16:45/M 2:24:30.4
137 TOM CORNMAN CARLISLE PA 43 M 25 40-49 5:12:52.9 16:49/M 2:25:58.5
138 ROBERT MADARA CATAWISSA PA 38 M 54 30-39 5:13:50.5 16:52/M 2:26:56.1
139 TRAVIS IMHOF CRESCO PA 37 M 55 30-39 5:13:52.2 16:52/M 2:26:57.8
140 RICK HINMAN CRANBERRY TWP PA 27 M 18 20-29 5:14:30.0 16:55/M 2:27:35.6
141 RENEE CALVERT PORT MATILDA PA 43 F 11 40-49 5:16:06.9 17:00/M 2:29:12.5
142 KIM WAGNER HUNTINGDON PA 23 F 11 20-29 5:16:35.0 17:01/M 2:29:40.6
143 JEREMY MILLER ALLENTOWN PA 33 M 56 30-39 5:16:35.9 17:01/M 2:29:41.5
144 KIMBERLI KWIATEK MILL HALL PA 52 F 2 50-59 5:17:32.4 17:04/M 2:30:38.0
145 JUSTIN BOLLMAN LANCASTER PA 17 M 4 0-19 5:18:29.5 17:07/M 2:31:35.1
146 MICHAEL SYKES LOCK HAVEN PA 28 M 19 20-29 5:19:16.7 17:10/M 2:32:22.3
147 DANIEL KOKRON SEVERN MD 39 M 57 30-39 5:19:21.1 17:10/M 2:32:26.7
148 DOUG BOLLMAN LANCASTER PA 42 M 26 40-49 5:20:07.3 17:13/M 2:33:12.9
149 ROBIN LONG FLEMINGTON PA 45 F 12 40-49 5:20:21.8 17:13/M 2:33:27.4
150 SHANE LAUDENSLAGER S. WILLIAMSPORT PA 31 M 58 30-39 5:20:27.3 17:14/M 2:33:32.9
151 ED EARLEY WILLIAMSPORT PA 51 M 13 50-59 5:20:27.9 17:14/M 2:33:33.5
152 MATTHEW BEAVER MCALISTERVILLE PA 36 M 59 30-39 5:20:32.0 17:14/M 2:33:37.6
153 TIM ROWSEY ASHLAND OH 51 M 14 50-59 5:20:37.2 17:14/M 2:33:42.8
154 MATT POSNEY MILESBURG PA 35 M 60 30-39 5:20:40.1 17:14/M 2:33:45.7
155 BETHANY STOUGH SPRUCE CREEK PA 33 F 7 30-39 5:21:50.4 17:18/M 2:34:56.0
156 MARY ANN HANLON HOLLIDAYSBURG PA 44 F 13 40-49 5:21:56.5 17:18/M 2:35:02.1
157 SUZETTE RICHARDSON POTTSTOWN PA 39 F 8 30-39 5:22:30.1 17:20/M 2:35:35.7
158 JAMES BASHAM STATE COLLEGE PA 25 M 20 20-29 5:22:44.7 17:21/M 2:35:50.3
159 KEVIN DIETZ PORT MATILDA PA 47 M 27 40-49 5:23:46.7 17:24/M 2:36:52.3
160 DAVID APKER WILLIAMSPORT PA 33 M 61 30-39 5:24:30.1 17:27/M 2:37:35.7
161 MICHAEL PACKARD STATE COLLEGE PA 40 M 28 40-49 5:25:53.7 17:31/M 2:38:59.3
162 JOHN DUNKELBERGER ELYSBURG PA 41 M 29 40-49 5:27:17.0 17:36/M 2:40:22.6
163 TARA REMICK LOCK HAVEN PA 37 F 9 30-39 5:27:45.1 17:37/M 2:40:50.7
164 MIKE REMICK LOCK HAVEN PA 38 M 62 30-39 5:27:45.5 17:37/M 2:40:51.1
165 BRIAN NEWCOMER S. WILLIAMSPORT PA 42 M 30 40-49 5:27:52.6 17:38/M 2:40:58.2
166 ROD KERSTETTER MILTON PA 52 M 15 50-59 5:28:19.0 17:39/M 2:41:24.6
167 HANS DOERR LOGANTON PA 29 M 21 20-29 5:29:22.7 17:42/M 2:42:28.3
168 JAMES WATSON MILL HALL PA 41 M 31 40-49 5:30:10.2 17:45/M 2:43:15.8
169 TYLER BIERLY WATERVILLE PA 16 M 5 0-19 5:30:10.3 17:45/M 2:43:15.9
170 JASON PEAK CARLISLE PA 36 M 63 30-39 5:30:34.8 17:46/M 2:43:40.4
171 SETH BROWN BEECH CREEK PA 25 M 22 20-29 5:32:02.5 17:51/M 2:45:08.1
172 RICHARD GREENE LOCK HAVEN PA 40 M 32 40-49 5:32:19.6 17:52/M 2:45:25.2
173 ANNE HESS MOHNTON PA 46 F 14 40-49 5:32:30.4 17:53/M 2:45:36.0
174 ROBIN LOERCHER MANHEIM PA 50 F 3 50-59 5:32:30.7 17:53/M 2:45:36.3
175 JOHN NOTTE DUNCANSVILLE PA 46 M 33 40-49 5:32:44.7 17:53/M 2:45:50.3
176 TODD TAGLIABOSKI BELLEFONTE PA 43 M 34 40-49 5:32:47.8 17:53/M 2:45:53.4
177 ZACHARY WERT MCELHATTAN PA 19 M 6 0-19 5:34:20.1 17:58/M 2:47:25.7
178 MATTHEW SIX BROOKLYN NY 28 M 23 20-29 5:34:47.0 18:00/M 2:47:52.6
179 DENISE SHEARER SAXONBURG PA 36 F 10 30-39 5:35:08.5 18:01/M 2:48:14.1
180 DAVE JENKINS STATE COLLEGE PA 36 M 64 30-39 5:35:43.7 18:03/M 2:48:49.3
181 DONNA CARNAHAN HARRISBURG PA 42 F 15 40-49 5:35:57.2 18:04/M 2:49:02.8
182 JIM CRIDGE 68 M 1 60-69 5:37:08.9 18:08/M 2:50:14.5
183 BRAD BAKER LINDEN PA 52 M 16 50-59 5:37:48.4 18:10/M 2:50:54.0
184 JULIE ALEXANDER MIFFLINBURG PA 41 F 16 40-49 5:37:52.7 18:10/M 2:50:58.3
185 GEORGE JERKO BELLEFONTE PA 52 M 17 50-59 5:38:36.4 18:12/M 2:51:42.0
186 TARA LEONE ERIE PA 24 F 12 20-29 5:38:58.4 18:13/M 2:52:04.0
187 SUSAN HOLDERMAN BELLEFONTE PA 37 F 11 30-39 5:38:58.7 18:13/M 2:52:04.3
188 KYLEANN HEIM COLUMBIA PA 45 F 17 40-49 5:39:21.3 18:15/M 2:52:26.9
189 WESLEY LEWIS EPHRATA PA 29 M 24 20-29 5:39:28.4 18:15/M 2:52:34.0
190 DENNY COLEGROVE WELLSBORO PA 52 M 18 50-59 5:39:50.1 18:16/M 2:52:55.7
191 AMY RUMBEL STATE COLLEGE PA 36 F 12 30-39 5:40:24.4 18:18/M 2:53:30.0
192 DEBORAH WOLFORD ALTOONA PA 37 F 13 30-39 5:40:36.0 18:19/M 2:53:41.6
193 PATRICIA REIDINGER DOWNINGTOWN PA 38 F 14 30-39 5:40:36.4 18:19/M 2:53:42.0
194 ERIN SCHMIDT ERIE PA 28 F 13 20-29 5:41:09.1 18:20/M 2:54:14.7
195 JOHN CLARK SUNBURY PA 51 M 19 50-59 5:41:19.9 18:21/M 2:54:25.5
196 JEFFRY SCHIESLER MCCLURE PA 54 M 20 50-59 5:42:23.3 18:24/M 2:55:28.9
197 STEPHANIE CLARK DALTON OH 34 F 15 30-39 5:42:33.5 18:25/M 2:55:39.1
198 ROBERT DIETEMAN DOUGLASSVILLE PA 35 M 65 30-39 5:43:02.1 18:27/M 2:56:07.7
199 AUDRA HIXSON STATE COLLEGE PA 38 F 16 30-39 5:44:25.8 18:31/M 2:57:31.4
200 DAVE HUNTER LOCK HAVEN PA 53 M 21 50-59 5:44:44.2 18:32/M 2:57:49.8
201 SALLY VILLELLA PUNXSUTAWNEY PA 52 F 4 50-59 5:45:21.0 18:34/M 2:58:26.6
202 JUDY KOCH LOCK HAVEN PA 46 F 18 40-49 5:46:09.0 18:37/M 2:59:14.6
203 MARK ALEXANDER MIFFLINBURG PA 41 M 35 40-49 5:46:26.6 18:38/M 2:59:32.2
204 BELINDA GRUSZKA SEVEN HILLS OH 52 F 5 50-59 5:46:35.2 18:38/M 2:59:40.8
205 MICHAEL GOSHERT EPHRATA PA 37 M 66 30-39 5:48:03.7 18:43/M 3:01:09.3
206 STEVE SHAWVER MCVEYTOWN PA 40 M 36 40-49 5:51:14.8 18:53/M 3:04:20.4
207 MANDY LEHMAN NESCOPECK PA 36 F 17 30-39 5:52:05.1 18:56/M 3:05:10.7
208 TIM LEHMAN NESCOPECK PA 36 M 67 30-39 5:52:05.1 18:56/M 3:05:10.7
209 ANITA ZALEWSKI PHILADELPHIA PA 36 F 18 30-39 5:53:46.4 19:01/M 3:06:52.0
210 PAUL NOLL SHAMOKIN PA 61 M 2 60-69 5:54:28.1 19:03/M 3:07:33.7
211 RICK WEAVER VENETIA PA 54 M 22 50-59 5:56:01.7 19:08/M 3:09:07.3
212 CHRISTOPHER CORNMAN SEWICKLEY PA 26 M 25 20-29 5:56:03.6 19:09/M 3:09:09.2
213 SUSAN BLACKWELL WELLSBORO PA 32 F 19 30-39 5:56:09.9 19:09/M 3:09:15.5
214 GREGORY GARTHE STATE COLLEGE PA 29 M 26 20-29 5:56:40.5 19:11/M 3:09:46.1
215 PATRICK VILLELLA PUNXSUTAWNEY PA 46 M 37 40-49 5:56:43.4 19:11/M 3:09:49.0
216 LORI FOX LEWISBURG PA 44 F 19 40-49 5:57:55.7 19:15/M 3:11:01.3
217 MISSY SMITH LOCK HAVEN PA 44 F 20 40-49 5:58:36.6 19:17/M 3:11:42.2
218 ADAM SLAWSKI BOALSBURG PA 32 M 68 30-39 5:59:17.3 19:19/M 3:12:22.9
219 RONALD APONTE BLOOMFIELD NJ 53 M 23 50-59 6:00:04.1 19:22/M 3:13:09.7
220 SEAN WILLIAMS MOHNTON PA 37 M 69 30-39 6:01:54.6 19:27/M 3:15:00.2
221 DEAN JOHNSON RED HILL PA 50 M 24 50-59 6:01:57.8 19:28/M 3:15:03.4
222 DENISE WOODWARD STATE COLLEGE PA 42 F 21 40-49 6:03:50.2 19:34/M 3:16:55.8
223 OLIVIA SEYMOUR HARRISBURG PA 29 F 14 20-29 6:03:52.9 19:34/M 3:16:58.5
224 KYLE SPIEGEL BUTLER PA 31 M 70 30-39 6:04:07.8 19:35/M 3:17:13.4
225 BRETT GREENFIELD STATE COLLEGE PA 34 M 71 30-39 6:04:08.2 19:35/M 3:17:13.8
226 BOBBI HICKS HUNTINGDON PA 25 F 15 20-29 6:06:37.5 19:43/M 3:19:43.1
227 ROXANNA STRINE YORK PA 55 F 6 50-59 6:07:00.8 19:44/M 3:20:06.4
228 JAMES POOLE GROVE CITY PA 61 M 3 60-69 6:07:36.5 19:46/M 3:20:42.1
229 KIM NELSON STATE COLLEGE PA 50 F 7 50-59 6:13:09.4 20:04/M 3:26:15.0
230 CHUCK FANUS PUNXSUTAWNEY PA 45 M 38 40-49 6:13:22.8 20:04/M 3:26:28.4
231 SEAN NUNEZ STATE COLLEGE PA 26 M 27 20-29 6:13:53.3 20:06/M 3:26:58.9
232 DAVID GOLFIERI WATSONTOWN PA 49 M 39 40-49 6:14:08.1 20:07/M 3:27:13.7
233 ERIC SHERMAN E HAMPSTEAD NH 47 M 40 40-49 6:14:49.2 20:09/M 3:27:54.8
234 ANGELA BIERLY WATERVILLE PA 31 F 20 30-39 6:15:16.6 20:11/M 3:28:22.2
235 JIM BURNWORTH MILL HALL PA 59 M 25 50-59 6:15:20.4 20:11/M 3:28:26.0
236 ED SPREHA HARRISBURG PA 39 M 72 30-39 6:15:21.6 20:11/M 3:28:27.2
237 PAUL LENZ LORETTO PA 46 M 41 40-49 6:16:11.4 20:13/M 3:29:17.0
238 KIM ELLETSON ERIE PA 40 F 22 40-49 6:16:14.6 20:14/M 3:29:20.2
239 RYAN KNECHT BLAIRSVILLE PA 38 M 73 30-39 6:18:09.4 20:20/M 3:31:15.0
240 JIM TRIVOLI SAXONBURG PA 41 M 42 40-49 6:19:09.9 20:23/M 3:32:15.5
241 JENNIFER MCCONNELL WATERVILLE PA 34 F 21 30-39 6:19:10.4 20:23/M 3:32:16.0
242 JOSEPH VANGORDER MILL HALL PA 53 M 26 50-59 6:19:25.7 20:24/M 3:32:31.3
243 GARY OISHI MCELHATTAN PA 51 M 27 50-59 6:19:30.6 20:24/M 3:32:36.2
244 BETH BURKHARDT ROMANSVILLE PA 35 F 22 30-39 6:19:43.2 20:25/M 3:32:48.8
245 JENNIFER CARROLL PLEASANT GAP PA 36 F 23 30-39 6:20:09.3 20:26/M 3:33:14.9
246 MIKE SCAFF MT. HOLLY SPRINGS PA 28 M 28 20-29 6:20:37.8 20:28/M 3:33:43.4
247 BOBBIE DANIELS MILL HALL PA 55 F 8 50-59 6:21:32.5 20:31/M 3:34:38.1
248 JASON M. CORBY WEST LAWN PA 31 M 74 30-39 6:21:49.9 20:32/M 3:34:55.5
249 MICAH METZEL DALLASTOWN PA 23 M 29 20-29 6:25:51.2 20:45/M 3:38:56.8
250 MIKE ASH WADSWORTH OH 36 M 75 30-39 6:28:13.6 20:52/M 3:41:19.2
251 PHIL HESSER CROCHERON MD 58 M 28 50-59 6:28:13.8 20:52/M 3:41:19.4
252 AUDREY BOYD MECHANICSBURG PA 35 F 24 30-39 6:28:15.0 20:52/M 3:41:20.6
253 GINA WERT MCELHATTAN PA 44 F 23 40-49 6:28:44.6 20:54/M 3:41:50.2
254 SAM WERT MCELHATTAN PA 46 M 43 40-49 6:28:45.1 20:54/M 3:41:50.7
255 BOB FARLEY LOCK HAVEN PA 54 M 29 50-59 6:33:31.5 21:09/M 3:46:37.1
256 DIANE DADO EMLENTON PA 35 F 25 30-39 6:33:37.3 21:10/M 3:46:42.9
257 RACHEL SCHMUCK EPHRATA PA 38 F 26 30-39 6:34:18.7 21:12/M 3:47:24.3
258 KELLY MILLER LOCK HAVEN PA 26 F 16 20-29 6:36:36.5 21:19/M 3:49:42.1
259 CAREEN SHAFER SHIRLEYSBURG PA 35 F 27 30-39 6:37:19.8 21:22/M 3:50:25.4
260 MATTHEW SMITH HARRISBURG PA 39 M 76 30-39 6:39:00.0 21:27/M 3:52:05.6
261 KEN MARQUARDT MILL HALL PA 39 M 77 30-39 6:39:13.7 21:28/M 3:52:19.3
262 TOM FOSTER SHIRLEYSBURG PA 39 M 78 30-39 6:39:14.0 21:28/M 3:52:19.6
263 GARY LENZ HARRISBURG PA 56 M 30 50-59 6:39:41.5 21:29/M 3:52:47.1
264 DONALD FULTZ LAURELTON PA 47 M 44 40-49 6:41:03.3 21:34/M 3:54:08.9
265 ANDY COSENTINE S. WILLIAMSPORT PA 39 M 79 30-39 6:44:50.4 21:46/M 3:57:56.0
266 MARY WINDHAM SANDY SPRING MD 34 F 28 30-39 6:45:03.1 21:47/M 3:58:08.7
267 SHERRI BUCKWALTER MCELHATTAN PA 43 F 24 40-49 6:45:53.4 21:49/M 3:58:59.0
268 MICHELLE MYERS MCELHATTAN PA 42 F 25 40-49 6:47:05.0 21:53/M 4:00:10.6
269 DENNIS SOBERS WILLIAMSPORT PA 46 M 45 40-49 6:48:40.2 21:58/M 4:01:45.8
270 CASSANDRA SOBERS WILLIAMSPORT PA 17 F 1 0-19 6:48:40.2 21:58/M 4:01:45.8
271 CARL NETTERMAN WELLSBORO PA 56 M 31 50-59 6:49:18.5 22:00/M 4:02:24.1
272 DONNA BURNWORTH MILL HALL PA 56 F 9 50-59 6:49:48.1 22:02/M 4:02:53.7
273 NATASHA RIEDER NEW COLUMBIA PA 28 F 17 20-29 6:51:49.2 22:08/M 4:04:54.8
274 SARAH PETEREC WINFIELD PA 31 F 29 30-39 6:51:51.7 22:09/M 4:04:57.3
275 CAROLE BERGSTROM WILLIAMSPORT PA 49 F 26 40-49 6:52:17.3 22:10/M 4:05:22.9
276 HARLAND BERGSTROM WILLIAMSPORT PA 52 M 32 50-59 6:52:26.3 22:10/M 4:05:31.9
277 MARC BILDER PITTSBURGH PA 61 M 4 60-69 6:52:59.4 22:12/M 4:06:05.0
278 JEAN BURKS WILLIAMSPORT PA 63 F 1 60-69 6:53:07.7 22:13/M 4:06:13.3
279 MERI WICSKTEED DAMASCUS MD 40 F 27 40-49 6:53:13.5 22:13/M 4:06:19.1
280 KERRI BARRETT COLUMBIA MD 52 F 10 50-59 6:53:48.6 22:15/M 4:06:54.2
281 BEN FARAHANI PORT MATILDA PA 42 M 46 40-49 6:54:48.6 22:18/M 4:07:54.2
282 IAN JOHNSON BELLEFONTE PA 32 M 80 30-39 6:54:50.2 22:18/M 4:07:55.8
283 CHRISTIAN GLOTFELTY LOCK HAVEN PA 32 M 81 30-39 6:55:05.1 22:19/M 4:08:10.7
284 AMANDA RIDENOUR LOCK HAVEN PA 21 F 18 20-29 6:56:56.4 22:25/M 4:10:02.0
285 MICHAEL CICCONE ROCKVILLE MD 30 M 82 30-39 6:57:35.0 22:27/M 4:10:40.6
286 EDWARD MALINOWSKI FRIENDSHIP MD 50 M 33 50-59 6:57:55.5 22:28/M 4:11:01.1
287 CHUCK PAVLOSKI STATE COLLEGE PA 40 M 47 40-49 7:00:08.6 22:35/M 4:13:14.2
288 MICHAEL HALE, SR. CAMPBELLTOWN PA 49 M 48 40-49 7:01:38.9 22:40/M 4:14:44.5
289 MICHAEL HALE CAMPBELLTOWN PA 17 M 7 0-19 7:01:39.3 22:40/M 4:14:44.9
290 DENNIS WOLFE WILLIAMSPORT PA 58 M 34 50-59 7:02:09.2 22:42/M 4:15:14.8
291 LIZ BOSAK BELLEFONTE PA 28 F 19 20-29 7:02:21.6 22:42/M 4:15:27.2
292 BILL SMITH ROCHESTER NY 27 M 30 20-29 7:02:55.9 22:44/M 4:16:01.5
293 AARON CHRIST ROCHESTER NY 26 M 31 20-29 7:03:17.4 22:45/M 4:16:23.0
294 KATHRYN BRADFORD CATONSVILLE MD 27 F 20 20-29 7:03:44.5 22:47/M 4:16:50.1
295 SARAH DUTTERA HOWARD PA 37 F 30 30-39 7:03:48.9 22:47/M 4:16:54.5
296 KEITH METZEL DALLASTOWN PA 52 M 35 50-59 7:03:52.1 22:47/M 4:16:57.7
297 MARLENE DUNWOODY HUNTINGDON PA 35 F 31 30-39 7:06:01.1 22:54/M 4:19:06.7
298 JOSEPH KULBACKI PITTSBURGH PA 43 M 49 40-49 7:06:40.1 22:56/M 4:19:45.7
299 ED MITCHELL MONTOURSVILLE PA 66 M 5 60-69 7:07:21.4 22:59/M 4:20:27.0
300 TOM LANE TITUSVILLE PA 40 M 50 40-49 7:07:28.4 22:59/M 4:20:34.0
301 ROB BROWELL MCMURRAY PA 42 M 51 40-49 7:07:28.4 22:59/M 4:20:34.0
302 STEPHANIE PROBERT RENOVO PA 30 F 32 30-39 7:08:27.6 23:02/M 4:21:33.2
303 GENIA HARPSTER PENN FURNACE PA 33 F 33 30-39 7:11:04.9 23:11/M 4:24:10.5
304 MORGAN ILGEN MILLHEIM PA 30 F 34 30-39 7:12:54.5 23:16/M 4:26:00.1
305 LUTHIEN BAKER STATE COLLEGE PA 30 F 35 30-39 7:12:54.7 23:16/M 4:26:00.3
306 TIMOTHY SWIFT LOGANTON PA 37 M 83 30-39 7:13:00.8 23:17/M 4:26:06.4
307 DARREN SWIFT BALTIMORE MD 34 M 84 30-39 7:13:01.4 23:17/M 4:26:07.0
308 TODD MILLER HARRSIBURG PA 40 M 52 40-49 7:13:13.2 23:17/M 4:26:18.8
309 DAWN STABLEY LOCK HAVEN PA 50 F 11 50-59 7:15:16.1 23:24/M 4:28:21.7
310 CHRIS STABLEY LOCK HAVEN PA 51 M 36 50-59 7:15:16.2 23:24/M 4:28:21.8
311 JEN MARQUARDT MILL HALL PA 39 F 36 30-39 7:16:35.2 23:28/M 4:29:40.8
312 MELISSA ROCKEY LOCK HAVEN PA 42 F 28 40-49 7:16:37.0 23:28/M 4:29:42.6
313 EMILIE OISHI MCELHATTAN PA 51 F 12 50-59 7:16:39.9 23:29/M 4:29:45.5
314 DAVID ROCKEY LOCK HAVEN PA 45 M 53 40-49 7:16:43.3 23:29/M 4:29:48.9
315 MORIS BEHAR GLEN BURNIE MD 26 M 32 20-29 7:28:17.0 24:06/M 4:41:22.6
316 JAMES RITTER HOLLIDAYSBURG PA 27 M 33 20-29 7:30:39.8 24:14/M 4:43:45.4
317 TRACY GARTHE PETERSBURG PA 25 F 21 20-29 7:33:26.0 24:23/M 4:46:31.6
318 KELLY GARTHE BLAIRSTOWN NJ 25 F 22 20-29 7:33:26.2 24:23/M 4:46:31.8
319 JAMES GARTHE PETERSBURG PA 60 M 6 60-69 7:33:48.8 24:24/M 4:46:54.4
320 KYLE BOHMANN BOALSBURG PA 25 M 34 20-29 7:34:19.4 24:26/M 4:47:25.0
321 CHRIS LAWRENCE ARLINGTON VA 50 M 37 50-59 7:34:20.3 24:26/M 4:47:25.9
322 STEVE KOCH JERSEY SHORE PA 40 M 54 40-49 7:34:20.4 24:26/M 4:47:26.0
323 BECKY BALLIET HARRISBURG PA 30 F 37 30-39 7:34:23.3 24:26/M 4:47:28.9
324 SAMUEL TAGGERT PITTSBURGH PA 27 M 35 20-29 7:43:00.1 24:54/M 4:56:05.7
325 LISA CARDENNIS MONTOURSVILLE PA 43 F 29 40-49 7:49:22.1 25:14/M 5:02:27.7
326 DAVID ANDERSEN WARRIORS MARK PA 71 M 1 70-99 7:50:57.6 25:19/M 5:04:03.2
327 RAY WERTS RENOVO PA 58 M 38 50-59 7:53:21.6 25:27/M 5:06:27.2
328 STEPHANIE JOHNSON MONTOURSVILLE PA 41 F 30 40-49 7:54:31.6 25:31/M 5:07:37.2
329 ANN BANFILL MILL HALL PA 32 F 38 30-39 7:54:32.1 25:31/M 5:07:37.7
330 HEATHER PHILLIPS CENTREVILLE VA 37 F 39 30-39 7:56:09.4 25:36/M 5:09:15.0
331 JIM JORDAN STATE COLLEGE PA 62 M 7 60-69 8:01:21.8 25:53/M 5:14:27.4
332 TAMMY MUNDY AVIS PA 47 F 31 40-49 8:01:54.8 25:55/M 5:15:00.4
333 DOROTHY CHAPPEL JERSEY SHORE PA 52 F 13 50-59 8:01:55.3 25:55/M 5:15:00.9
334 KRISTIE KOVACYK HARWICK PA 34 F 40 30-39 8:52:21.8 28:37/M 6:05:27.4
335 CAROLYN GARDNER STATE COLLEGE PA 34 F 41 30-39 9:04:37.7 29:17/M 6:17:43.3
336 KEVIN JASZEMSKI VOLANT PA 51 M 39 50-59 9:07:52.4 29:27/M 6:20:58.0
337 LEE MASON PITTSBURGH PA 54 M 40 50-59 9:08:16.6 29:29/M 6:21:22.2
Overall Female Open Winners

Place Name City Age Overall Time Pace Time Back
1 MEIRA MINARD STATE COLLEGE PA 36 16 3:34:17.3 11:31/M

Overall Male Open Winners

Place Name City Age Overall Time Pace Time Back
1 JACOB LOVERICH STATE COLLEGE PA 33 1 2:46:54.4 8:58/M

Female 19 and under

Place Name City Age Overall Time Pace Time Back
1 CASSANDRA SOBERS WILLIAMSPORT PA 17 270 6:48:40.2 21:58/M

Male 19 and under

Place Name City Age Overall Time Pace Time Back
1 DAVID HESTOR DUNCANNON PA 17 15 3:33:48.9 11:30/M
2 VINCE VILLELLA PUNXSUTAWNEY PA 19 53 4:24:10.2 14:12/M 0:50:21.3
3 GYASI DAVIS STATE COLLEGE PA 9 106 4:54:30.4 15:50/M 1:20:41.5
4 JUSTIN BOLLMAN LANCASTER PA 17 145 5:18:29.5 17:07/M 1:44:40.6
5 TYLER BIERLY WATERVILLE PA 16 169 5:30:10.3 17:45/M 1:56:21.4
6 ZACHARY WERT MCELHATTAN PA 19 177 5:34:20.1 17:58/M 2:00:31.2
7 MICHAEL HALE CAMPBELLTOWN PA 17 289 7:01:39.3 22:40/M 3:27:50.4

Female 20 to 29

Place Name City Age Overall Time Pace Time Back
1 KIMBERLY WALTER STATE COLLEGE PA 29 19 3:44:44.7 12:05/M
2 CAITLIN STRAHOTA SLIPPERY ROCK PA 24 26 3:53:39.1 12:34/M 0:08:54.4
3 AMY MCCULLOUGH DOVER PA 28 46 4:19:37.8 13:57/M 0:34:53.1
4 ELLICE SMITH HUNTINGDON PA 26 65 4:27:52.7 14:24/M 0:43:08.0
5 MOLLY RITTER ARENDTSVILLE PA 23 74 4:35:52.0 14:50/M 0:51:07.3
6 CLAIRE BERRYMAN MORGANTOWN WV 23 75 4:35:52.1 14:50/M 0:51:07.4
7 KRISTINA HARRIS STATE COLLEGE PA 24 88 4:43:12.6 15:14/M 0:58:27.9
8 ANGEL BURD HUNTINGDON PA 25 93 4:47:26.2 15:27/M 1:02:41.5
9 KATIERA CAREY MONTOURSVILLE PA 23 114 4:58:35.8 16:03/M 1:13:51.1
10 LAUREN GREENBERG BEL AIR MD 22 117 4:59:46.6 16:07/M 1:15:01.9
11 KIM WAGNER HUNTINGDON PA 23 142 5:16:35.0 17:01/M 1:31:50.3
12 TARA LEONE ERIE PA 24 186 5:38:58.4 18:13/M 1:54:13.7
13 ERIN SCHMIDT ERIE PA 28 194 5:41:09.1 18:20/M 1:56:24.4
14 OLIVIA SEYMOUR HARRISBURG PA 29 223 6:03:52.9 19:34/M 2:19:08.2
15 BOBBI HICKS HUNTINGDON PA 25 226 6:06:37.5 19:43/M 2:21:52.8
16 KELLY MILLER LOCK HAVEN PA 26 258 6:36:36.5 21:19/M 2:51:51.8
17 NATASHA RIEDER NEW COLUMBIA PA 28 273 6:51:49.2 22:08/M 3:07:04.5
18 AMANDA RIDENOUR LOCK HAVEN PA 21 284 6:56:56.4 22:25/M 3:12:11.7
19 LIZ BOSAK BELLEFONTE PA 28 291 7:02:21.6 22:42/M 3:17:36.9
20 KATHRYN BRADFORD CATONSVILLE MD 27 294 7:03:44.5 22:47/M 3:18:59.8
21 TRACY GARTHE PETERSBURG PA 25 317 7:33:26.0 24:23/M 3:48:41.3
22 KELLY GARTHE BLAIRSTOWN NJ 25 318 7:33:26.2 24:23/M 3:48:41.5

Male 20 to 29

Place Name City Age Overall Time Pace Time Back
1 ERIC MARSHALL BOALSBURG PA 26 11 3:23:35.5 10:57/M
2 ANDREW SIEFERT CORTLAND NY 25 18 3:43:23.4 12:01/M 0:19:47.9
3 KORY HUBBARD INDIANA PA 22 24 3:50:25.8 12:23/M 0:26:50.3
4 SETH KUTIKOFF STATE COLLEGE PA 21 25 3:51:49.5 12:28/M 0:28:14.0
5 GREG BLATT STATE COLLEGE PA 28 40 4:14:49.2 13:42/M 0:51:13.7
6 MATT ZERBY LOCK HAVEN PA 22 43 4:18:47.9 13:55/M 0:55:12.4
7 EDWARD WILSON-EWING STATE COLLEGE PA 26 50 4:22:33.9 14:07/M 0:58:58.4
8 DYLAN HENRY BEACH LAKE PA 22 55 4:24:15.0 14:12/M 1:00:39.5
9 GARRETT KERSTETTER MILTON PA 27 57 4:24:29.6 14:13/M 1:00:54.1
10 CLIFF WHITE STATE COLLEGE PA 26 68 4:31:14.5 14:35/M 1:07:39.0
11 MATTHEW ROULIN RINGTOWN PA 28 80 4:37:39.7 14:56/M 1:14:04.2
12 JORGE FERNANDEZ DOWNINGTOWN PA 26 81 4:38:26.3 14:58/M 1:14:50.8
13 MIKE SNADER LITITZ PA 28 87 4:42:55.2 15:13/M 1:19:19.7
14 MICHAEL FIORE ALTOONA PA 28 107 4:54:31.1 15:50/M 1:30:55.6
15 SHANE LOERCHER MANHEIM PA 25 109 4:56:28.8 15:56/M 1:32:53.3
16 BARTON TOWELL ERIE PA 27 129 5:06:01.4 16:27/M 1:42:25.9
17 SCOTT TROUT NEWPORT PA 23 133 5:07:40.1 16:32/M 1:44:04.6
18 RICK HINMAN CRANBERRY TWP PA 27 140 5:14:30.0 16:55/M 1:50:54.5
19 MICHAEL SYKES LOCK HAVEN PA 28 146 5:19:16.7 17:10/M 1:55:41.2
20 JAMES BASHAM STATE COLLEGE PA 25 158 5:22:44.7 17:21/M 1:59:09.2
21 HANS DOERR LOGANTON PA 29 167 5:29:22.7 17:42/M 2:05:47.2
22 SETH BROWN BEECH CREEK PA 25 171 5:32:02.5 17:51/M 2:08:27.0
23 MATTHEW SIX BROOKLYN NY 28 178 5:34:47.0 18:00/M 2:11:11.5
24 WESLEY LEWIS EPHRATA PA 29 189 5:39:28.4 18:15/M 2:15:52.9
25 CHRISTOPHER CORNMAN SEWICKLEY PA 26 212 5:56:03.6 19:09/M 2:32:28.1
26 GREGORY GARTHE STATE COLLEGE PA 29 214 5:56:40.5 19:11/M 2:33:05.0
27 SEAN NUNEZ STATE COLLEGE PA 26 231 6:13:53.3 20:06/M 2:50:17.8
28 MIKE SCAFF MT. HOLLY SPRINGS PA 28 246 6:20:37.8 20:28/M 2:57:02.3
29 MICAH METZEL DALLASTOWN PA 23 249 6:25:51.2 20:45/M 3:02:15.7
30 BILL SMITH ROCHESTER NY 27 292 7:02:55.9 22:44/M 3:39:20.4
31 AARON CHRIST ROCHESTER NY 26 293 7:03:17.4 22:45/M 3:39:41.9
32 MORIS BEHAR GLEN BURNIE MD 26 315 7:28:17.0 24:06/M 4:04:41.5
33 JAMES RITTER HOLLIDAYSBURG PA 27 316 7:30:39.8 24:14/M 4:07:04.3
34 KYLE BOHMANN BOALSBURG PA 25 320 7:34:19.4 24:26/M 4:10:43.9
35 SAMUEL TAGGERT PITTSBURGH PA 27 324 7:43:00.1 24:54/M 4:19:24.6

Female 30 to 39

Place Name City Age Overall Time Pace Time Back
1 MEIRA MINARD STATE COLLEGE PA 36 16 3:34:17.3 11:31/M
2 ALISON BRYANT ELKIN NC 31 22 3:46:51.0 12:12/M 0:12:33.7
3 JENNIFER FLEMING STATE COLLEGE PA 35 31 3:59:06.8 12:51/M 0:24:49.5
4 TARA MURRAY BELLEFONTE PA 33 38 4:13:30.9 13:38/M 0:39:13.6
5 JEN STEC-GAGLIARDI BENTON PA 34 48 4:19:54.6 13:58/M 0:45:37.3
6 YVONNE MCCASLIN JULIAN PA 36 123 5:03:21.0 16:19/M 1:29:03.7
7 BETHANY STOUGH SPRUCE CREEK PA 33 155 5:21:50.4 17:18/M 1:47:33.1
8 SUZETTE RICHARDSON POTTSTOWN PA 39 157 5:22:30.1 17:20/M 1:48:12.8
9 TARA REMICK LOCK HAVEN PA 37 163 5:27:45.1 17:37/M 1:53:27.8
10 DENISE SHEARER SAXONBURG PA 36 179 5:35:08.5 18:01/M 2:00:51.2
11 SUSAN HOLDERMAN BELLEFONTE PA 37 187 5:38:58.7 18:13/M 2:04:41.4
12 AMY RUMBEL STATE COLLEGE PA 36 191 5:40:24.4 18:18/M 2:06:07.1
13 DEBORAH WOLFORD ALTOONA PA 37 192 5:40:36.0 18:19/M 2:06:18.7
14 PATRICIA REIDINGER DOWNINGTOWN PA 38 193 5:40:36.4 18:19/M 2:06:19.1
15 STEPHANIE CLARK DALTON OH 34 197 5:42:33.5 18:25/M 2:08:16.2
16 AUDRA HIXSON STATE COLLEGE PA 38 199 5:44:25.8 18:31/M 2:10:08.5
17 MANDY LEHMAN NESCOPECK PA 36 207 5:52:05.1 18:56/M 2:17:47.8
18 ANITA ZALEWSKI PHILADELPHIA PA 36 209 5:53:46.4 19:01/M 2:19:29.1
19 SUSAN BLACKWELL WELLSBORO PA 32 213 5:56:09.9 19:09/M 2:21:52.6
20 ANGELA BIERLY WATERVILLE PA 31 234 6:15:16.6 20:11/M 2:40:59.3
21 JENNIFER MCCONNELL WATERVILLE PA 34 241 6:19:10.4 20:23/M 2:44:53.1
22 BETH BURKHARDT ROMANSVILLE PA 35 244 6:19:43.2 20:25/M 2:45:25.9
23 JENNIFER CARROLL PLEASANT GAP PA 36 245 6:20:09.3 20:26/M 2:45:52.0
24 AUDREY BOYD MECHANICSBURG PA 35 252 6:28:15.0 20:52/M 2:53:57.7
25 DIANE DADO EMLENTON PA 35 256 6:33:37.3 21:10/M 2:59:20.0
26 RACHEL SCHMUCK EPHRATA PA 38 257 6:34:18.7 21:12/M 3:00:01.4
27 CAREEN SHAFER SHIRLEYSBURG PA 35 259 6:37:19.8 21:22/M 3:03:02.5
28 MARY WINDHAM SANDY SPRING MD 34 266 6:45:03.1 21:47/M 3:10:45.8
29 SARAH PETEREC WINFIELD PA 31 274 6:51:51.7 22:09/M 3:17:34.4
30 SARAH DUTTERA HOWARD PA 37 295 7:03:48.9 22:47/M 3:29:31.6
31 MARLENE DUNWOODY HUNTINGDON PA 35 297 7:06:01.1 22:54/M 3:31:43.8
32 STEPHANIE PROBERT RENOVO PA 30 302 7:08:27.6 23:02/M 3:34:10.3
33 GENIA HARPSTER PENN FURNACE PA 33 303 7:11:04.9 23:11/M 3:36:47.6
34 MORGAN ILGEN MILLHEIM PA 30 304 7:12:54.5 23:16/M 3:38:37.2
35 LUTHIEN BAKER STATE COLLEGE PA 30 305 7:12:54.7 23:16/M 3:38:37.4
36 JEN MARQUARDT MILL HALL PA 39 311 7:16:35.2 23:28/M 3:42:17.9
37 BECKY BALLIET HARRISBURG PA 30 323 7:34:23.3 24:26/M 4:00:06.0
38 ANN BANFILL MILL HALL PA 32 329 7:54:32.1 25:31/M 4:20:14.8
39 HEATHER PHILLIPS CENTREVILLE VA 37 330 7:56:09.4 25:36/M 4:21:52.1
40 KRISTIE KOVACYK HARWICK PA 34 334 8:52:21.8 28:37/M 5:18:04.5
41 CAROLYN GARDNER STATE COLLEGE PA 34 335 9:04:37.7 29:17/M 5:30:20.4

Male 30 to 39

Place Name City Age Overall Time Pace Time Back
1 JACOB LOVERICH STATE COLLEGE PA 33 1 2:46:54.4 8:58/M
2 JASON BRYANT ELKIN NC 37 2 2:51:33.7 9:13/M 0:04:39.3
3 MATTHEW BYRNE SCRANTON PA 35 3 2:52:21.4 9:16/M 0:05:27.0
4 MICHAEL SELIG LAKEWOOD CO 32 4 2:54:49.7 9:24/M 0:07:55.3
5 FRANK LEITER HARRISBURG PA 37 6 3:00:51.8 9:43/M 0:13:57.4
6 JESSE JOHNSON STEWARTSTOWN PA 35 7 3:03:39.6 9:52/M 0:16:45.2
7 CHIP KOGELMANN STATE COLLEGE PA 39 8 3:07:09.9 10:04/M 0:20:15.5
8 ANDREW HOLLAND NEW YORK NY 31 10 3:12:17.8 10:20/M 0:25:23.4
9 KIRBY MARTIN REEDSVILLE PA 34 12 3:25:28.0 11:03/M 0:38:33.6
10 TODD YARNELL ALTOONA PA 36 13 3:30:10.4 11:18/M 0:43:16.0
11 KELLY KENNEDY LEMONT PA 37 14 3:30:17.2 11:18/M 0:43:22.8
12 CRAIG FLEMING STATE COLLEGE PA 37 21 3:46:32.9 12:11/M 0:59:38.5
13 JAMES CONWAY MILL HALL PA 39 23 3:47:35.6 12:14/M 1:00:41.2
14 STEVE NELSON STATE COLLEGE PA 37 32 4:03:31.6 13:06/M 1:16:37.2
15 MICHAEL RIEDER NEW COLUMBIA PA 36 33 4:06:10.4 13:14/M 1:19:16.0
16 MICHAEL HUTSON BLACKWOOD NJ 39 36 4:11:04.2 13:30/M 1:24:09.8
17 ERIK JOHNSON ARDMORE PA 34 37 4:12:36.8 13:35/M 1:25:42.4
18 MIKE HABALAR WILLIAMSPORT PA 36 45 4:19:36.5 13:57/M 1:32:42.1
19 GARRET GRAFF JERSEY SHORE PA 37 47 4:19:43.2 13:58/M 1:32:48.8
20 JAMES WALKER BEECH CREEK PA 35 51 4:23:15.2 14:09/M 1:36:20.8
21 JAMES REA LOYSVILLE PA 39 54 4:24:14.6 14:12/M 1:37:20.2
22 GARRY RARER STOWE PA 37 56 4:24:29.6 14:13/M 1:37:35.2
23 MARK READ STATE COLLEGE PA 39 58 4:25:00.2 14:15/M 1:38:05.8
24 TODD VALESKY PHILIPSBURG PA 39 69 4:32:56.2 14:40/M 1:46:01.8
25 DANIEL MCCASLIN JULIAN PA 37 70 4:33:00.9 14:41/M 1:46:06.5
26 DANIEL MOWERS PLEASANT HALL PA 32 71 4:34:47.0 14:46/M 1:47:52.6
27 CHRIS YEAGER LINDEN PA 36 72 4:34:52.3 14:47/M 1:47:57.9
28 MATT LINDSEY ALTOONA PA 34 76 4:36:01.4 14:50/M 1:49:07.0
29 JASON FRITZ MIFFLINBURG PA 35 79 4:37:36.1 14:55/M 1:50:41.7
30 SCOTT KLETTKE MORGAN HILL CA 36 82 4:38:39.7 14:59/M 1:51:45.3
31 CHRIS DEYO STATE COLLEGE PA 34 85 4:41:02.9 15:07/M 1:54:08.5
32 BRIAN BRUSHWOOD STATE COLLEGE PA 34 86 4:41:21.8 15:08/M 1:54:27.4
33 JEFF FOSTER CHAMBERSBURG PA 35 89 4:43:17.1 15:14/M 1:56:22.7
34 SAMUEL SNYDER LOCK HAVEN PA 30 91 4:46:48.7 15:25/M 1:59:54.3
35 STEVE TEMPLIN MILTON PA 37 92 4:47:09.8 15:26/M 2:00:15.4
36 THADDEUS WILL WARRIORS MARK PA 37 94 4:48:25.7 15:30/M 2:01:31.3
37 JASON MARUCCIO PITTSBURGH PA 33 95 4:49:04.5 15:32/M 2:02:10.1
38 SCOTT WOODS STATE COLLEGE PA 35 96 4:49:29.2 15:34/M 2:02:34.8
39 JARED SHOLLEY MIFFLINBURG PA 31 97 4:49:47.1 15:35/M 2:02:52.7
40 TREVOR BRYDEN STATE COLLEGE PA 31 101 4:53:13.4 15:46/M 2:06:19.0
41 KARL ROY EDGEWATER MD 39 105 4:53:58.1 15:48/M 2:07:03.7
42 JUSTIN BELLINI CHAGRIN FALLS OH 36 110 4:56:51.7 15:58/M 2:09:57.3
43 MATT HARTMAN JERSEY SHORE PA 35 111 4:56:52.2 15:58/M 2:09:57.8
44 RANDY KRUGER LYNDORA PA 39 113 4:58:29.1 16:03/M 2:11:34.7
45 DREW WELCH MILL HALL PA 31 115 4:58:40.4 16:03/M 2:11:46.0
46 TIMOTHY GATES HARRISBURG PA 34 121 5:01:05.3 16:11/M 2:14:10.9
47 JIM SIMON BOALSBURG PA 37 122 5:03:05.9 16:18/M 2:16:11.5
48 PATRICK FOURNEY LOCK HAVEN PA 39 126 5:04:07.5 16:21/M 2:17:13.1
49 JERRY BLASKO DANVILLE PA 38 127 5:04:22.4 16:22/M 2:17:28.0
50 GABRIEL TAMBUNGA PHILADELPHIA PA 37 128 5:05:56.4 16:27/M 2:19:02.0
51 SCOTT GROVE MILTON PA 38 131 5:06:46.8 16:30/M 2:19:52.4
52 BILL MCCONNELL WATERVILLE PA 34 132 5:07:09.1 16:31/M 2:20:14.7
53 BRETT BEAVER NEWPORT PA 33 135 5:10:00.2 16:40/M 2:23:05.8
54 ROBERT MADARA CATAWISSA PA 38 138 5:13:50.5 16:52/M 2:26:56.1
55 TRAVIS IMHOF CRESCO PA 37 139 5:13:52.2 16:52/M 2:26:57.8
56 JEREMY MILLER ALLENTOWN PA 33 143 5:16:35.9 17:01/M 2:29:41.5
57 DANIEL KOKRON SEVERN MD 39 147 5:19:21.1 17:10/M 2:32:26.7
58 SHANE LAUDENSLAGER S. WILLIAMSPORT PA 31 150 5:20:27.3 17:14/M 2:33:32.9
59 MATTHEW BEAVER MCALISTERVILLE PA 36 152 5:20:32.0 17:14/M 2:33:37.6
60 MATT POSNEY MILESBURG PA 35 154 5:20:40.1 17:14/M 2:33:45.7
61 DAVID APKER WILLIAMSPORT PA 33 160 5:24:30.1 17:27/M 2:37:35.7
62 MIKE REMICK LOCK HAVEN PA 38 164 5:27:45.5 17:37/M 2:40:51.1
63 JASON PEAK CARLISLE PA 36 170 5:30:34.8 17:46/M 2:43:40.4
64 DAVE JENKINS STATE COLLEGE PA 36 180 5:35:43.7 18:03/M 2:48:49.3
65 ROBERT DIETEMAN DOUGLASSVILLE PA 35 198 5:43:02.1 18:27/M 2:56:07.7
66 MICHAEL GOSHERT EPHRATA PA 37 205 5:48:03.7 18:43/M 3:01:09.3
67 TIM LEHMAN NESCOPECK PA 36 208 5:52:05.1 18:56/M 3:05:10.7
68 ADAM SLAWSKI BOALSBURG PA 32 218 5:59:17.3 19:19/M 3:12:22.9
69 SEAN WILLIAMS MOHNTON PA 37 220 6:01:54.6 19:27/M 3:15:00.2
70 KYLE SPIEGEL BUTLER PA 31 224 6:04:07.8 19:35/M 3:17:13.4
71 BRETT GREENFIELD STATE COLLEGE PA 34 225 6:04:08.2 19:35/M 3:17:13.8
72 ED SPREHA HARRISBURG PA 39 236 6:15:21.6 20:11/M 3:28:27.2
73 RYAN KNECHT BLAIRSVILLE PA 38 239 6:18:09.4 20:20/M 3:31:15.0
74 JASON M. CORBY WEST LAWN PA 31 248 6:21:49.9 20:32/M 3:34:55.5
75 MIKE ASH WADSWORTH OH 36 250 6:28:13.6 20:52/M 3:41:19.2
76 MATTHEW SMITH HARRISBURG PA 39 260 6:39:00.0 21:27/M 3:52:05.6
77 KEN MARQUARDT MILL HALL PA 39 261 6:39:13.7 21:28/M 3:52:19.3
78 TOM FOSTER SHIRLEYSBURG PA 39 262 6:39:14.0 21:28/M 3:52:19.6
79 ANDY COSENTINE S. WILLIAMSPORT PA 39 265 6:44:50.4 21:46/M 3:57:56.0
80 IAN JOHNSON BELLEFONTE PA 32 282 6:54:50.2 22:18/M 4:07:55.8
81 CHRISTIAN GLOTFELTY LOCK HAVEN PA 32 283 6:55:05.1 22:19/M 4:08:10.7
82 MICHAEL CICCONE ROCKVILLE MD 30 285 6:57:35.0 22:27/M 4:10:40.6
83 TIMOTHY SWIFT LOGANTON PA 37 306 7:13:00.8 23:17/M 4:26:06.4
84 DARREN SWIFT BALTIMORE MD 34 307 7:13:01.4 23:17/M 4:26:07.0

Female 40 to 49

Place Name City Age Overall Time Pace Time Back
1 TAMMY MCGAUGHEY CHICORA PA 48 66 4:28:46.0 14:27/M
2 JOANNE VAN HORN DOUGLASSVILLE PA 45 77 4:37:32.7 14:55/M 0:08:46.7
3 MARSHA LATIMER POTTSTOWN PA 48 78 4:37:32.9 14:55/M 0:08:46.9
4 LORI JOHNSON RED HILL PA 46 99 4:50:25.1 15:37/M 0:21:39.1
5 JANINE HOCKMAN WIND GAP PA 44 102 4:53:25.3 15:47/M 0:24:39.3
6 SUE CHALLIS STATE COLLEGE PA 44 103 4:53:30.8 15:47/M 0:24:44.8
7 BECKY GREEN-DIXON PORT MATILDA PA 41 104 4:53:37.1 15:47/M 0:24:51.1
8 KELLY HIBBLER LOCK HAVEN PA 42 124 5:03:25.0 16:19/M 0:34:39.0
9 MICHELE PROBST RENOVO PA 40 125 5:04:07.1 16:21/M 0:35:21.1
10 KRISTIE KAUFMAN STATE COLLEGE PA 41 134 5:08:35.1 16:35/M 0:39:49.1
11 RENEE CALVERT PORT MATILDA PA 43 141 5:16:06.9 17:00/M 0:47:20.9
12 ROBIN LONG FLEMINGTON PA 45 149 5:20:21.8 17:13/M 0:51:35.8
13 MARY ANN HANLON HOLLIDAYSBURG PA 44 156 5:21:56.5 17:18/M 0:53:10.5
14 ANNE HESS MOHNTON PA 46 173 5:32:30.4 17:53/M 1:03:44.4
15 DONNA CARNAHAN HARRISBURG PA 42 181 5:35:57.2 18:04/M 1:07:11.2
16 JULIE ALEXANDER MIFFLINBURG PA 41 184 5:37:52.7 18:10/M 1:09:06.7
17 KYLEANN HEIM COLUMBIA PA 45 188 5:39:21.3 18:15/M 1:10:35.3
18 JUDY KOCH LOCK HAVEN PA 46 202 5:46:09.0 18:37/M 1:17:23.0
19 LORI FOX LEWISBURG PA 44 216 5:57:55.7 19:15/M 1:29:09.7
20 MISSY SMITH LOCK HAVEN PA 44 217 5:58:36.6 19:17/M 1:29:50.6
21 DENISE WOODWARD STATE COLLEGE PA 42 222 6:03:50.2 19:34/M 1:35:04.2
22 KIM ELLETSON ERIE PA 40 238 6:16:14.6 20:14/M 1:47:28.6
23 GINA WERT MCELHATTAN PA 44 253 6:28:44.6 20:54/M 1:59:58.6
24 SHERRI BUCKWALTER MCELHATTAN PA 43 267 6:45:53.4 21:49/M 2:17:07.4
25 MICHELLE MYERS MCELHATTAN PA 42 268 6:47:05.0 21:53/M 2:18:19.0
26 CAROLE BERGSTROM WILLIAMSPORT PA 49 275 6:52:17.3 22:10/M 2:23:31.3
27 MERI WICSKTEED DAMASCUS MD 40 279 6:53:13.5 22:13/M 2:24:27.5
28 MELISSA ROCKEY LOCK HAVEN PA 42 312 7:16:37.0 23:28/M 2:47:51.0
29 LISA CARDENNIS MONTOURSVILLE PA 43 325 7:49:22.1 25:14/M 3:20:36.1
30 STEPHANIE JOHNSON MONTOURSVILLE PA 41 328 7:54:31.6 25:31/M 3:25:45.6
31 TAMMY MUNDY AVIS PA 47 332 8:01:54.8 25:55/M 3:33:08.8

Male 40 to 49

Place Name City Age Overall Time Pace Time Back
1 JAMES RAYBURN YORK PA 48 5 3:00:32.4 9:42/M
2 TADD MORRIS CAMP HILL PA 42 9 3:12:14.4 10:20/M 0:11:42.0
3 AL FOX LEWISBURG PA 48 17 3:34:56.5 11:33/M 0:34:24.1
4 LARRY SCHLALINE DALLASTOWN PA 48 20 3:45:13.7 12:07/M 0:44:41.3
5 JEFF SMUCKER WOODWARD PA 44 27 3:53:57.5 12:35/M 0:53:25.1
6 GARY TWOEY STATE COLLEGE PA 40 28 3:55:11.1 12:39/M 0:54:38.7
7 JAMES CRAMER MYERSTOWN PA 47 29 3:55:11.4 12:39/M 0:54:39.0
8 MATT DIXON PORT MATILDA PA 40 30 3:58:11.9 12:48/M 0:57:39.5
9 JUDD MICHAEL LEMONT PA 46 34 4:07:44.7 13:19/M 1:07:12.3
10 PETE GROTH DOUGLASSVILLE PA 41 35 4:07:55.2 13:20/M 1:07:22.8
11 TOM UNDERWOOD CATAWISSA PA 40 39 4:14:12.1 13:40/M 1:13:39.7
12 WILLIAM SCHLORFF LOCK HAVEN PA 46 42 4:18:20.7 13:53/M 1:17:48.3
13 JOSEPH ADAMS PORT MATILDA PA 40 44 4:19:14.7 13:56/M 1:18:42.3
14 STACEY HIBBLER LOCK HAVEN PA 46 52 4:23:16.2 14:09/M 1:22:43.8
15 JOHN UEHLING MIFFLINBURG PA 49 60 4:26:39.4 14:20/M 1:26:07.0
16 RON BARNES HOWARD PA 44 61 4:26:46.1 14:21/M 1:26:13.7
17 BRIAN ROBERTSON WILMINGTON DE 41 63 4:27:13.5 14:22/M 1:26:41.1
18 TOM RODGERS PORT MATILDA PA 49 67 4:31:11.9 14:35/M 1:30:39.5
19 STEVE GEYER BELLEFONTE PA 43 83 4:39:03.1 15:00/M 1:38:30.7
20 DANIEL GOVERN LENHARTSVILLE PA 41 84 4:39:07.3 15:00/M 1:38:34.9
21 SHAUN HUPPERTZ NEW CASTLE PA 43 112 4:57:27.3 16:00/M 1:56:54.9
22 TODD EGRY WALNUTPORT PA 45 118 4:59:55.9 16:07/M 1:59:23.5
23 RYAN MAXWELL LEWISBURG PA 47 130 5:06:45.3 16:30/M 2:06:12.9
24 JESSE GREENAWALT LEWISBURG PA 43 136 5:11:24.8 16:45/M 2:10:52.4
25 TOM CORNMAN CARLISLE PA 43 137 5:12:52.9 16:49/M 2:12:20.5
26 DOUG BOLLMAN LANCASTER PA 42 148 5:20:07.3 17:13/M 2:19:34.9
27 KEVIN DIETZ PORT MATILDA PA 47 159 5:23:46.7 17:24/M 2:23:14.3
28 MICHAEL PACKARD STATE COLLEGE PA 40 161 5:25:53.7 17:31/M 2:25:21.3
29 JOHN DUNKELBERGER ELYSBURG PA 41 162 5:27:17.0 17:36/M 2:26:44.6
30 BRIAN NEWCOMER S. WILLIAMSPORT PA 42 165 5:27:52.6 17:38/M 2:27:20.2
31 JAMES WATSON MILL HALL PA 41 168 5:30:10.2 17:45/M 2:29:37.8
32 RICHARD GREENE LOCK HAVEN PA 40 172 5:32:19.6 17:52/M 2:31:47.2
33 JOHN NOTTE DUNCANSVILLE PA 46 175 5:32:44.7 17:53/M 2:32:12.3
34 TODD TAGLIABOSKI BELLEFONTE PA 43 176 5:32:47.8 17:53/M 2:32:15.4
35 MARK ALEXANDER MIFFLINBURG PA 41 203 5:46:26.6 18:38/M 2:45:54.2
36 STEVE SHAWVER MCVEYTOWN PA 40 206 5:51:14.8 18:53/M 2:50:42.4
37 PATRICK VILLELLA PUNXSUTAWNEY PA 46 215 5:56:43.4 19:11/M 2:56:11.0
38 CHUCK FANUS PUNXSUTAWNEY PA 45 230 6:13:22.8 20:04/M 3:12:50.4
39 DAVID GOLFIERI WATSONTOWN PA 49 232 6:14:08.1 20:07/M 3:13:35.7
40 ERIC SHERMAN E HAMPSTEAD NH 47 233 6:14:49.2 20:09/M 3:14:16.8
41 PAUL LENZ LORETTO PA 46 237 6:16:11.4 20:13/M 3:15:39.0
42 JIM TRIVOLI SAXONBURG PA 41 240 6:19:09.9 20:23/M 3:18:37.5
43 SAM WERT MCELHATTAN PA 46 254 6:28:45.1 20:54/M 3:28:12.7
44 DONALD FULTZ LAURELTON PA 47 264 6:41:03.3 21:34/M 3:40:30.9
45 DENNIS SOBERS WILLIAMSPORT PA 46 269 6:48:40.2 21:58/M 3:48:07.8
46 BEN FARAHANI PORT MATILDA PA 42 281 6:54:48.6 22:18/M 3:54:16.2
47 CHUCK PAVLOSKI STATE COLLEGE PA 40 287 7:00:08.6 22:35/M 3:59:36.2
48 MICHAEL HALE, SR. CAMPBELLTOWN PA 49 288 7:01:38.9 22:40/M 4:01:06.5
49 JOSEPH KULBACKI PITTSBURGH PA 43 298 7:06:40.1 22:56/M 4:06:07.7
50 TOM LANE TITUSVILLE PA 40 300 7:07:28.4 22:59/M 4:06:56.0
51 ROB BROWELL MCMURRAY PA 42 301 7:07:28.4 22:59/M 4:06:56.0
52 TODD MILLER HARRSIBURG PA 40 308 7:13:13.2 23:17/M 4:12:40.8
53 DAVID ROCKEY LOCK HAVEN PA 45 314 7:16:43.3 23:29/M 4:16:10.9
54 STEVE KOCH JERSEY SHORE PA 40 322 7:34:20.4 24:26/M 4:33:48.0

Female 50 to 59

Place Name City Age Overall Time Pace Time Back
1 JOYCE BERRYMAN MORGANTOWN WV 55 116 4:58:43.6 16:04/M
2 KIMBERLI KWIATEK MILL HALL PA 52 144 5:17:32.4 17:04/M 0:18:48.8
3 ROBIN LOERCHER MANHEIM PA 50 174 5:32:30.7 17:53/M 0:33:47.1
4 SALLY VILLELLA PUNXSUTAWNEY PA 52 201 5:45:21.0 18:34/M 0:46:37.4
5 BELINDA GRUSZKA SEVEN HILLS OH 52 204 5:46:35.2 18:38/M 0:47:51.6
6 ROXANNA STRINE YORK PA 55 227 6:07:00.8 19:44/M 1:08:17.2
7 KIM NELSON STATE COLLEGE PA 50 229 6:13:09.4 20:04/M 1:14:25.8
8 BOBBIE DANIELS MILL HALL PA 55 247 6:21:32.5 20:31/M 1:22:48.9
9 DONNA BURNWORTH MILL HALL PA 56 272 6:49:48.1 22:02/M 1:51:04.5
10 KERRI BARRETT COLUMBIA MD 52 280 6:53:48.6 22:15/M 1:55:05.0
11 DAWN STABLEY LOCK HAVEN PA 50 309 7:15:16.1 23:24/M 2:16:32.5
12 EMILIE OISHI MCELHATTAN PA 51 313 7:16:39.9 23:29/M 2:17:56.3
13 DOROTHY CHAPPEL JERSEY SHORE PA 52 333 8:01:55.3 25:55/M 3:03:11.7

Male 50 to 59

Place Name City Age Overall Time Pace Time Back
1 DAVE MITCHELL BLOOMSBURG PA 55 41 4:18:16.7 13:53/M
2 BRIAN JOLY PITTSBURGH PA 51 49 4:21:39.9 14:04/M 0:03:23.2
3 BOB RENNINGER WILLIAMSPORT PA 56 59 4:25:04.3 14:15/M 0:06:47.6
4 JOSEPH YOUNG LEWISTOWN PA 52 62 4:26:53.1 14:21/M 0:08:36.4
5 MARVIN HALL STATE COLLEGE PA 55 64 4:27:52.1 14:24/M 0:09:35.4
6 DAVID DEGROOTE STATE COLLEGE PA 52 73 4:35:04.4 14:47/M 0:16:47.7
7 TOM BARLOW WILMINGTON DE 56 90 4:46:15.7 15:23/M 0:27:59.0
8 MICHAEL MCCLOUD MIFFLINBURG PA 52 98 4:49:47.8 15:35/M 0:31:31.1
9 ROBERT GUSZTAW WIND GAP PA 52 100 4:52:04.4 15:42/M 0:33:47.7
10 BRIAN OTTINGER PITTSBURGH PA 53 108 4:55:25.4 15:53/M 0:37:08.7
11 JAMES MYERS BOALSBURG PA 55 119 5:00:24.7 16:09/M 0:42:08.0
12 BRUCE JODOIN EASTON PA 54 120 5:00:32.2 16:09/M 0:42:15.5
13 ED EARLEY WILLIAMSPORT PA 51 151 5:20:27.9 17:14/M 1:02:11.2
14 TIM ROWSEY ASHLAND OH 51 153 5:20:37.2 17:14/M 1:02:20.5
15 ROD KERSTETTER MILTON PA 52 166 5:28:19.0 17:39/M 1:10:02.3
16 BRAD BAKER LINDEN PA 52 183 5:37:48.4 18:10/M 1:19:31.7
17 GEORGE JERKO BELLEFONTE PA 52 185 5:38:36.4 18:12/M 1:20:19.7
18 DENNY COLEGROVE WELLSBORO PA 52 190 5:39:50.1 18:16/M 1:21:33.4
19 JOHN CLARK SUNBURY PA 51 195 5:41:19.9 18:21/M 1:23:03.2
20 JEFFRY SCHIESLER MCCLURE PA 54 196 5:42:23.3 18:24/M 1:24:06.6
21 DAVE HUNTER LOCK HAVEN PA 53 200 5:44:44.2 18:32/M 1:26:27.5
22 RICK WEAVER VENETIA PA 54 211 5:56:01.7 19:08/M 1:37:45.0
23 RONALD APONTE BLOOMFIELD NJ 53 219 6:00:04.1 19:22/M 1:41:47.4
24 DEAN JOHNSON RED HILL PA 50 221 6:01:57.8 19:28/M 1:43:41.1
25 JIM BURNWORTH MILL HALL PA 59 235 6:15:20.4 20:11/M 1:57:03.7
26 JOSEPH VANGORDER MILL HALL PA 53 242 6:19:25.7 20:24/M 2:01:09.0
27 GARY OISHI MCELHATTAN PA 51 243 6:19:30.6 20:24/M 2:01:13.9
28 PHIL HESSER CROCHERON MD 58 251 6:28:13.8 20:52/M 2:09:57.1
29 BOB FARLEY LOCK HAVEN PA 54 255 6:33:31.5 21:09/M 2:15:14.8
30 GARY LENZ HARRISBURG PA 56 263 6:39:41.5 21:29/M 2:21:24.8
31 CARL NETTERMAN WELLSBORO PA 56 271 6:49:18.5 22:00/M 2:31:01.8
32 HARLAND BERGSTROM WILLIAMSPORT PA 52 276 6:52:26.3 22:10/M 2:34:09.6
33 EDWARD MALINOWSKI FRIENDSHIP MD 50 286 6:57:55.5 22:28/M 2:39:38.8
34 DENNIS WOLFE WILLIAMSPORT PA 58 290 7:02:09.2 22:42/M 2:43:52.5
35 KEITH METZEL DALLASTOWN PA 52 296 7:03:52.1 22:47/M 2:45:35.4
36 CHRIS STABLEY LOCK HAVEN PA 51 310 7:15:16.2 23:24/M 2:56:59.5
37 CHRIS LAWRENCE ARLINGTON VA 50 321 7:34:20.3 24:26/M 3:16:03.6
38 RAY WERTS RENOVO PA 58 327 7:53:21.6 25:27/M 3:35:04.9
39 KEVIN JASZEMSKI VOLANT PA 51 336 9:07:52.4 29:27/M 4:49:35.7
40 LEE MASON PITTSBURGH PA 54 337 9:08:16.6 29:29/M 4:49:59.9

Top
Female 60 to 69

Place Name City Age Overall Time Pace Time Back
1 JEAN BURKS WILLIAMSPORT PA 63 278 6:53:07.7 22:13/M

Male 60 to 69

Place Name City Age Overall Time Pace Time Back
1 JIM CRIDGE 68 182 5:37:08.9 18:08/M
2 PAUL NOLL SHAMOKIN PA 61 210 5:54:28.1 19:03/M 0:17:19.2
3 JAMES POOLE GROVE CITY PA 61 228 6:07:36.5 19:46/M 0:30:27.6
4 MARC BILDER PITTSBURGH PA 61 277 6:52:59.4 22:12/M 1:15:50.5
5 ED MITCHELL MONTOURSVILLE PA 66 299 7:07:21.4 22:59/M 1:30:12.5
6 JAMES GARTHE PETERSBURG PA 60 319 7:33:48.8 24:24/M 1:56:39.9
7 JIM JORDAN STATE COLLEGE PA 62 331 8:01:21.8 25:53/M 2:24:12.9

Male 70 and over

Place Name City Age Overall Time Pace Time Back
1 DAVID ANDERSEN WARRIORS MARK PA 71 326 7:50:57.6 25:19/M